Time;durP1;ratioP1;P1;durP2;ratioP2;P2;SDS_P1;SDS_P2;PMS_P1;PMS_P2;Temp;Humidity;BMP_temperature;BMP_pressure;BME280_temperature;BME280_humidity;BME280_pressure;Samples;Min_cycle;Max_cycle;Signal;HPM_P1;HPM_P2
2023/01/19 00:01:41;;;;;;;12.90;9.43;;;;;;;;;;5113689;28;20450;-72
2023/01/19 00:04:08;;;;;;;19.10;12.10;;;;;;;;;;5113485;28;20465;-72
2023/01/19 00:06:35;;;;;;;18.43;9.97;;;;;;;;;;5113393;28;20485;-72
2023/01/19 00:09:02;;;;;;;18.60;11.70;;;;;;;;;;5113593;28;20471;-72
2023/01/19 00:11:30;;;;;;;14.33;9.57;;;;;;;;;;5113701;28;20457;-72
2023/01/19 00:13:58;;;;;;;20.53;11.90;;;;;;;;;;5113676;28;20458;-71
2023/01/19 00:16:25;;;;;;;13.80;9.70;;;;;;;;;;5113609;28;20919;-72
2023/01/19 00:18:52;;;;;;;17.20;10.67;;;;;;;;;;5113526;28;20469;-72
2023/01/19 00:21:21;;;;;;;21.50;14.00;;;;;;;;;;5113247;28;20460;-72
2023/01/19 00:23:51;;;;;;;19.27;12.60;;;;;;;;;;5113449;28;20458;-72
2023/01/19 00:26:20;;;;;;;17.37;11.50;;;;;;;;;;5117197;28;21068;-72
2023/01/19 00:28:49;;;;;;;16.00;9.37;;;;;;;;;;5117585;28;20564;-72
2023/01/19 00:31:19;;;;;;;17.17;11.70;;;;;;;;;;5117360;28;20457;-72
2023/01/19 00:33:48;;;;;;;16.43;11.43;;;;;;;;;;5117278;28;20434;-71
2023/01/19 00:36:15;;;;;;;17.70;11.47;;;;;;;;;;5117584;28;20434;-72
2023/01/19 00:38:42;;;;;;;20.80;10.67;;;;;;;;;;5117408;28;21006;-72
2023/01/19 00:41:09;;;;;;;16.57;10.40;;;;;;;;;;5117262;28;20452;-71
2023/01/19 00:43:36;;;;;;;16.23;11.80;;;;;;;;;;5117396;28;20456;-71
2023/01/19 00:46:03;;;;;;;21.00;11.63;;;;;;;;;;5116928;28;20477;-71
2023/01/19 00:48:32;;;;;;;19.03;12.70;;;;;;;;;;5116897;28;20465;-71
2023/01/19 00:50:59;;;;;;;20.70;11.87;;;;;;;;;;5117231;28;20942;-72
2023/01/19 00:53:31;;;;;;;18.70;13.07;;;;;;;;;;5117224;27;20449;-72
2023/01/19 00:55:58;;;;;;;20.47;13.10;;;;;;;;;;5117196;28;20429;-71
2023/01/19 00:58:25;;;;;;;20.27;12.50;;;;;;;;;;5117037;28;20823;-72
2023/01/19 01:00:56;;;;;;;17.30;11.67;;;;;;;;;;5117025;28;20449;-71
2023/01/19 01:03:26;;;;;;;19.07;11.60;;;;;;;;;;5116849;28;20993;-71
2023/01/19 01:05:55;;;;;;;20.10;12.40;;;;;;;;;;5116899;28;20879;-72
2023/01/19 01:08:22;;;;;;;21.33;12.57;;;;;;;;;;5116779;28;20465;-71
2023/01/19 01:10:49;;;;;;;21.30;13.23;;;;;;;;;;5116543;28;20450;-72
2023/01/19 01:13:16;;;;;;;21.97;12.90;;;;;;;;;;5116837;27;20846;-72
2023/01/19 01:15:43;;;;;;;25.70;14.63;;;;;;;;;;5116723;27;20453;-71
2023/01/19 01:18:10;;;;;;;19.57;12.20;;;;;;;;;;5116289;28;20460;-71
2023/01/19 01:20:38;;;;;;;23.93;12.60;;;;;;;;;;5116648;28;20520;-71
2023/01/19 01:23:06;;;;;;;22.57;14.10;;;;;;;;;;5116356;28;20452;-72
2023/01/19 01:25:36;;;;;;;28.40;14.80;;;;;;;;;;5116538;28;20985;-72
2023/01/19 01:28:04;;;;;;;21.10;13.27;;;;;;;;;;5116177;28;20534;-71
2023/01/19 01:30:31;;;;;;;23.73;13.90;;;;;;;;;;5116154;28;20440;-71
2023/01/19 01:32:58;;;;;;;27.83;14.37;;;;;;;;;;5116463;28;20906;-72
2023/01/19 01:35:25;;;;;;;24.73;14.23;;;;;;;;;;5115962;28;20849;-71
2023/01/19 01:37:52;;;;;;;28.07;15.80;;;;;;;;;;5116212;28;20445;-71
2023/01/19 01:40:21;;;;;;;22.50;13.90;;;;;;;;;;5116067;28;20437;-72
2023/01/19 01:42:48;;;;;;;27.27;14.90;;;;;;;;;;5116190;28;20450;-72
2023/01/19 01:45:26;;;;;;;25.67;17.27;;;;;;;;;;5116149;28;20449;-71
2023/01/19 01:47:54;;;;;;;27.33;14.93;;;;;;;;;;5115987;28;20798;-72
2023/01/19 01:50:22;;;;;;;26.30;15.43;;;;;;;;;;5115841;28;20445;-72
2023/01/19 01:52:51;;;;;;;24.97;15.17;;;;;;;;;;5115774;28;20445;-72
2023/01/19 01:55:18;;;;;;;23.77;14.77;;;;;;;;;;5115993;28;21273;-71
2023/01/19 01:57:49;;;;;;;29.30;14.67;;;;;;;;;;5115665;28;20445;-71
2023/01/19 02:00:16;;;;;;;31.70;15.10;;;;;;;;;;5116128;28;20472;-71
2023/01/19 02:02:53;;;;;;;20.57;13.70;;;;;;;;;;5115502;28;20469;-71
2023/01/19 02:05:22;;;;;;;30.90;16.90;;;;;;;;;;5115528;28;20459;-71
2023/01/19 02:13:23;;;;;;;30.87;17.33;;;;;;;;;;5115446;28;20921;-71
2023/01/19 02:15:51;;;;;;;25.33;14.77;;;;;;;;;;5115575;28;20476;-71
2023/01/19 02:18:18;;;;;;;29.23;15.10;;;;;;;;;;5115518;28;20560;-71
2023/01/19 02:20:49;;;;;;;36.30;17.43;;;;;;;;;;5115481;28;20472;-71
2023/01/19 02:23:20;;;;;;;32.90;17.50;;;;;;;;;;5115133;28;20438;-71
2023/01/19 02:25:49;;;;;;;35.83;16.20;;;;;;;;;;5115419;28;20833;-71
2023/01/19 02:28:17;;;;;;;29.80;15.67;;;;;;;;;;5115347;28;20547;-71
2023/01/19 02:30:44;;;;;;;26.80;15.20;;;;;;;;;;5115281;28;20457;-71
2023/01/19 02:33:11;;;;;;;26.10;16.07;;;;;;;;;;5115298;28;20434;-71
2023/01/19 02:35:40;;;;;;;34.47;17.93;;;;;;;;;;5114854;28;20446;-71
2023/01/19 02:38:08;;;;;;;28.57;17.43;;;;;;;;;;5114780;28;20450;-72
2023/01/19 02:40:37;;;;;;;27.50;17.40;;;;;;;;;;5114795;28;20429;-71
2023/01/19 02:43:07;;;;;;;31.03;17.20;;;;;;;;;;5114989;28;20455;-71
2023/01/19 02:45:37;;;;;;;26.93;16.60;;;;;;;;;;5114896;28;20434;-72
2023/01/19 02:48:04;;;;;;;31.43;16.50;;;;;;;;;;5114032;28;20450;-71
2023/01/19 02:50:38;;;;;;;33.67;17.90;;;;;;;;;;5114479;28;20454;-71
2023/01/19 02:53:11;;;;;;;31.80;17.37;;;;;;;;;;5114864;28;20438;-72
2023/01/19 02:55:38;;;;;;;31.57;16.10;;;;;;;;;;5114527;28;20434;-72
2023/01/19 02:58:11;;;;;;;25.30;13.50;;;;;;;;;;5114693;28;20819;-72
2023/01/19 03:00:43;;;;;;;31.73;18.03;;;;;;;;;;5114754;28;20433;-71
2023/01/19 03:03:20;;;;;;;24.87;15.13;;;;;;;;;;5114775;28;20492;-72
2023/01/19 03:05:53;;;;;;;31.37;16.77;;;;;;;;;;5114581;28;20902;-72
2023/01/19 03:08:27;;;;;;;24.07;15.17;;;;;;;;;;5114617;28;20962;-72
2023/01/19 03:10:57;;;;;;;27.50;13.87;;;;;;;;;;5114491;28;20430;-71
2023/01/19 03:13:28;;;;;;;29.10;14.80;;;;;;;;;;5114462;28;20938;-72
2023/01/19 03:15:57;;;;;;;28.37;15.90;;;;;;;;;;5114427;28;20871;-72
2023/01/19 03:18:25;;;;;;;31.90;15.23;;;;;;;;;;5114183;28;20469;-71
2023/01/19 03:20:55;;;;;;;24.17;14.40;;;;;;;;;;5114050;28;20446;-71
2023/01/19 03:23:23;;;;;;;31.10;15.40;;;;;;;;;;5114279;28;20449;-72
2023/01/19 03:25:51;;;;;;;28.30;15.80;;;;;;;;;;5113899;28;20465;-72
2023/01/19 03:28:20;;;;;;;31.13;16.70;;;;;;;;;;5114261;28;20462;-71
2023/01/19 03:30:52;;;;;;;26.93;14.97;;;;;;;;;;5114252;28;20452;-72
2023/01/19 03:33:24;;;;;;;26.17;16.70;;;;;;;;;;5113876;28;20483;-72
2023/01/19 03:35:54;;;;;;;32.07;17.47;;;;;;;;;;5114097;28;20544;-71
2023/01/19 03:38:25;;;;;;;27.73;15.97;;;;;;;;;;5113655;28;21004;-71
2023/01/19 03:40:53;;;;;;;29.13;15.10;;;;;;;;;;5114107;28;20792;-71
2023/01/19 03:43:20;;;;;;;30.90;14.30;;;;;;;;;;5114005;28;20957;-71
2023/01/19 03:45:49;;;;;;;34.00;16.10;;;;;;;;;;5113963;28;20453;-71
2023/01/19 03:48:16;;;;;;;28.37;15.03;;;;;;;;;;5113873;28;20476;-72
2023/01/19 03:50:43;;;;;;;28.93;16.17;;;;;;;;;;5113855;28;20930;-72
2023/01/19 03:53:11;;;;;;;34.87;19.70;;;;;;;;;;5113572;28;20456;-72
2023/01/19 03:55:39;;;;;;;28.23;16.77;;;;;;;;;;5113499;28;20458;-72
2023/01/19 03:58:07;;;;;;;31.17;17.30;;;;;;;;;;5113315;28;20532;-71
2023/01/19 04:00:35;;;;;;;29.80;16.73;;;;;;;;;;5113689;28;20457;-71
2023/01/19 04:03:03;;;;;;;32.80;19.10;;;;;;;;;;5113557;28;20648;-71
2023/01/19 04:05:31;;;;;;;33.20;18.00;;;;;;;;;;5113654;28;20453;-71
2023/01/19 04:07:58;;;;;;;33.53;18.57;;;;;;;;;;5113187;28;20481;-71
2023/01/19 04:10:25;;;;;;;28.20;15.27;;;;;;;;;;5113603;28;20934;-70
2023/01/19 04:12:57;;;;;;;36.07;17.47;;;;;;;;;;5113789;28;20458;-71
2023/01/19 04:15:25;;;;;;;31.37;17.83;;;;;;;;;;5113645;28;20458;-71
2023/01/19 04:17:52;;;;;;;40.57;20.20;;;;;;;;;;5113147;28;20464;-71
2023/01/19 04:20:21;;;;;;;29.00;16.20;;;;;;;;;;5113542;28;20947;-72
2023/01/19 04:22:48;;;;;;;32.70;16.93;;;;;;;;;;5113631;28;20449;-71
2023/01/19 04:25:15;;;;;;;33.30;18.63;;;;;;;;;;5113442;28;20454;-71
2023/01/19 04:27:43;;;;;;;29.23;18.00;;;;;;;;;;5113446;28;20489;-71
2023/01/19 04:30:10;;;;;;;32.73;16.77;;;;;;;;;;5113418;28;20481;-71
2023/01/19 04:32:37;;;;;;;39.83;18.07;;;;;;;;;;5113597;28;20434;-72
2023/01/19 04:35:05;;;;;;;33.47;18.00;;;;;;;;;;5113165;28;20448;-72
2023/01/19 04:37:33;;;;;;;29.20;17.30;;;;;;;;;;5112986;28;20471;-71
2023/01/19 04:40:00;;;;;;;35.90;18.47;;;;;;;;;;5113389;28;20469;-72
2023/01/19 04:42:27;;;;;;;30.63;16.60;;;;;;;;;;5113385;28;20445;-72
2023/01/19 04:44:55;;;;;;;27.80;15.00;;;;;;;;;;5113056;28;20460;-71
2023/01/19 04:47:22;;;;;;;34.23;16.37;;;;;;;;;;5113246;28;21001;-72
2023/01/19 04:49:49;;;;;;;32.27;17.50;;;;;;;;;;5113308;28;20866;-72
2023/01/19 04:52:16;;;;;;;30.17;17.43;;;;;;;;;;5112940;28;20446;-71
2023/01/19 04:54:44;;;;;;;31.63;18.87;;;;;;;;;;5113362;28;20461;-71
2023/01/19 04:57:11;;;;;;;32.47;18.50;;;;;;;;;;5112938;28;20442;-71
2023/01/19 04:59:39;;;;;;;23.83;14.27;;;;;;;;;;5112825;28;20473;-72
2023/01/19 05:02:06;;;;;;;34.33;15.50;;;;;;;;;;5113177;28;20489;-71
2023/01/19 05:04:33;;;;;;;29.33;16.10;;;;;;;;;;5112817;28;20462;-72
2023/01/19 05:07:00;;;;;;;27.30;15.60;;;;;;;;;;5113116;28;20493;-71
2023/01/19 05:09:27;;;;;;;26.87;15.70;;;;;;;;;;5112743;28;20472;-72
2023/01/19 05:11:55;;;;;;;17.23;12.13;;;;;;;;;;5115519;28;20445;-72
2023/01/19 05:14:22;;;;;;;24.10;13.00;;;;;;;;;;5116901;28;20452;-72
2023/01/19 05:16:50;;;;;;;20.20;12.77;;;;;;;;;;5116846;28;20450;-71
2023/01/19 05:19:17;;;;;;;24.50;14.50;;;;;;;;;;5116382;28;20473;-71
2023/01/19 05:21:44;;;;;;;22.53;13.07;;;;;;;;;;5116446;28;20450;-72
2023/01/19 05:24:11;;;;;;;15.83;11.60;;;;;;;;;;5116741;28;20449;-72
2023/01/19 05:26:38;;;;;;;13.60;9.33;;;;;;;;;;5116576;28;20456;-72
2023/01/19 05:29:07;;;;;;;20.90;11.60;;;;;;;;;;5116443;28;20466;-71
2023/01/19 05:31:34;;;;;;;16.30;10.80;;;;;;;;;;5116497;27;20533;-71
2023/01/19 05:34:01;;;;;;;24.87;12.30;;;;;;;;;;5116493;28;20958;-71
2023/01/19 05:36:28;;;;;;;17.30;11.30;;;;;;;;;;5116484;28;20813;-71
2023/01/19 05:38:56;;;;;;;18.57;10.77;;;;;;;;;;5116338;28;20808;-71
2023/01/19 05:41:23;;;;;;;12.67;10.00;;;;;;;;;;5116053;28;20461;-71
2023/01/19 05:43:50;;;;;;;17.10;12.70;;;;;;;;;;5116336;27;20457;-71
2023/01/19 05:46:18;;;;;;;17.13;11.80;;;;;;;;;;5116258;28;20438;-71
2023/01/19 05:48:45;;;;;;;19.87;12.37;;;;;;;;;;5115765;28;20492;-71
2023/01/19 05:51:12;;;;;;;20.70;11.17;;;;;;;;;;5115818;27;20454;-71
2023/01/19 05:53:39;;;;;;;19.17;11.33;;;;;;;;;;5115838;28;20454;-71
2023/01/19 05:56:08;;;;;;;20.27;13.60;;;;;;;;;;5116069;28;20814;-71
2023/01/19 05:58:36;;;;;;;18.73;12.30;;;;;;;;;;5115816;28;20469;-71
2023/01/19 06:01:04;;;;;;;22.80;13.43;;;;;;;;;;5115502;27;20483;-73
2023/01/19 06:03:32;;;;;;;20.33;13.73;;;;;;;;;;5115178;28;20457;-72
2023/01/19 06:06:00;;;;;;;21.93;13.23;;;;;;;;;;5115741;28;20453;-72
2023/01/19 06:08:27;;;;;;;18.57;12.40;;;;;;;;;;5115157;28;20497;-72
2023/01/19 06:10:54;;;;;;;20.60;12.13;;;;;;;;;;5115400;28;20946;-73
2023/01/19 06:13:21;;;;;;;19.93;11.83;;;;;;;;;;5115311;28;20828;-73
2023/01/19 06:15:48;;;;;;;22.40;14.33;;;;;;;;;;5115146;28;20453;-73
2023/01/19 06:18:15;;;;;;;24.37;13.40;;;;;;;;;;5115474;28;20473;-72
2023/01/19 06:20:44;;;;;;;19.83;11.83;;;;;;;;;;5115010;28;20452;-72
2023/01/19 06:23:11;;;;;;;18.50;11.77;;;;;;;;;;5115029;28;20823;-73
2023/01/19 06:25:38;;;;;;;21.50;15.13;;;;;;;;;;5115039;28;20817;-73
2023/01/19 06:28:05;;;;;;;18.10;12.07;;;;;;;;;;5115167;28;20823;-73
2023/01/19 06:30:32;;;;;;;20.80;13.20;;;;;;;;;;5114774;28;20450;-73
2023/01/19 06:33:01;;;;;;;18.83;12.73;;;;;;;;;;5115341;28;20430;-73
2023/01/19 06:35:28;;;;;;;19.33;12.67;;;;;;;;;;5114887;28;20827;-73
2023/01/19 06:37:57;;;;;;;20.73;13.00;;;;;;;;;;5113749;28;20449;-72
2023/01/19 06:40:24;;;;;;;20.43;13.13;;;;;;;;;;5115870;28;20434;-73
2023/01/19 06:42:51;;;;;;;22.13;13.00;;;;;;;;;;5114940;28;20446;-72
2023/01/19 06:45:19;;;;;;;23.33;15.00;;;;;;;;;;5115843;28;20460;-73
2023/01/19 06:47:47;;;;;;;18.63;13.47;;;;;;;;;;5115850;28;21001;-73
2023/01/19 06:50:15;;;;;;;22.50;14.10;;;;;;;;;;5115473;28;20496;-73
2023/01/19 06:52:42;;;;;;;20.43;13.37;;;;;;;;;;5115975;28;20499;-73
2023/01/19 06:55:12;;;;;;;20.83;12.37;;;;;;;;;;5114630;28;20441;-73
2023/01/19 06:57:39;;;;;;;19.70;13.40;;;;;;;;;;5114634;28;20449;-73
2023/01/19 07:00:07;;;;;;;16.70;10.67;;;;;;;;;;5114206;28;20466;-73
2023/01/19 07:02:35;;;;;;;20.33;13.23;;;;;;;;;;5114306;28;20462;-72
2023/01/19 07:05:02;;;;;;;26.07;12.80;;;;;;;;;;5114042;28;20468;-73
2023/01/19 07:07:29;;;;;;;21.53;13.07;;;;;;;;;;5114292;28;20489;-73
2023/01/19 07:09:56;;;;;;;22.83;14.10;;;;;;;;;;5114251;28;20474;-72
2023/01/19 07:12:24;;;;;;;19.63;13.20;;;;;;;;;;5114708;28;20442;-73
2023/01/19 07:14:51;;;;;;;20.47;12.27;;;;;;;;;;5114097;28;20945;-72
2023/01/19 07:17:19;;;;;;;18.60;12.90;;;;;;;;;;5114854;28;20441;-73
2023/01/19 07:19:46;;;;;;;23.20;15.27;;;;;;;;;;5114823;28;20473;-72
2023/01/19 07:22:14;;;;;;;18.40;12.03;;;;;;;;;;5114076;28;20438;-73
2023/01/19 07:24:41;;;;;;;19.50;13.27;;;;;;;;;;5113714;28;20821;-73
2023/01/19 07:27:10;;;;;;;22.73;13.67;;;;;;;;;;5113745;28;20456;-72
2023/01/19 07:29:44;;;;;;;26.20;16.27;;;;;;;;;;5113153;28;20467;-73
2023/01/19 07:32:11;;;;;;;20.87;14.20;;;;;;;;;;5113712;28;20820;-72
2023/01/19 07:34:38;;;;;;;20.90;13.93;;;;;;;;;;5113048;28;20461;-73
2023/01/19 07:37:05;;;;;;;25.53;13.83;;;;;;;;;;5113546;28;20453;-72
2023/01/19 07:39:35;;;;;;;19.90;13.93;;;;;;;;;;5113950;28;20473;-73
2023/01/19 07:42:02;;;;;;;19.53;13.40;;;;;;;;;;5113175;28;20894;-72
2023/01/19 07:44:29;;;;;;;23.73;15.13;;;;;;;;;;5113398;28;20454;-73
2023/01/19 07:46:58;;;;;;;29.77;14.50;;;;;;;;;;5113479;28;20902;-73
2023/01/19 07:49:25;;;;;;;27.03;14.30;;;;;;;;;;5113267;28;20496;-72
2023/01/19 07:51:55;;;;;;;18.90;11.77;;;;;;;;;;5113325;28;20453;-73
2023/01/19 07:54:22;;;;;;;25.13;13.57;;;;;;;;;;5113524;28;20458;-73
2023/01/19 07:56:49;;;;;;;22.20;13.70;;;;;;;;;;5113151;28;20499;-73
2023/01/19 07:59:16;;;;;;;20.60;13.20;;;;;;;;;;5113089;28;20462;-73
2023/01/19 08:01:43;;;;;;;17.97;11.47;;;;;;;;;;5112966;28;20470;-72
2023/01/19 08:04:12;;;;;;;20.30;13.43;;;;;;;;;;5113074;28;20977;-73
2023/01/19 08:06:39;;;;;;;19.40;12.33;;;;;;;;;;5113280;28;20450;-73
2023/01/19 08:09:07;;;;;;;18.90;13.03;;;;;;;;;;5113514;28;20493;-73
2023/01/19 08:11:35;;;;;;;19.13;13.00;;;;;;;;;;5113606;28;20801;-72
2023/01/19 08:14:02;;;;;;;22.23;13.50;;;;;;;;;;5113429;28;20824;-73
2023/01/19 08:16:29;;;;;;;23.13;13.70;;;;;;;;;;5113446;28;20553;-73
2023/01/19 08:18:56;;;;;;;18.83;12.30;;;;;;;;;;5113054;28;20478;-73
2023/01/19 08:21:25;;;;;;;17.27;11.40;;;;;;;;;;5113267;28;20457;-72
2023/01/19 08:23:53;;;;;;;22.90;13.73;;;;;;;;;;5112761;28;20454;-72
2023/01/19 08:26:23;;;;;;;20.10;12.53;;;;;;;;;;5108167;28;20493;-74
2023/01/19 08:28:50;;;;;;;27.90;12.93;;;;;;;;;;5111781;28;20493;-73
2023/01/19 08:31:17;;;;;;;17.30;11.87;;;;;;;;;;5111751;28;20493;-73
2023/01/19 08:33:44;;;;;;;20.23;12.67;;;;;;;;;;5112282;28;20449;-73
2023/01/19 08:36:11;;;;;;;20.30;13.30;;;;;;;;;;5112428;28;20460;-74
2023/01/19 08:38:42;;;;;;;23.90;12.53;;;;;;;;;;5112443;28;20462;-73
2023/01/19 08:41:10;;;;;;;24.90;12.63;;;;;;;;;;5112022;28;20495;-73
2023/01/19 08:43:37;;;;;;;20.90;11.33;;;;;;;;;;5111948;28;20452;-73
2023/01/19 08:46:05;;;;;;;17.97;13.07;;;;;;;;;;5113755;28;20457;-73
2023/01/19 08:48:32;;;;;;;22.10;12.23;;;;;;;;;;5116009;28;20513;-73
2023/01/19 08:51:00;;;;;;;25.00;15.20;;;;;;;;;;5115731;28;20456;-73
2023/01/19 08:53:27;;;;;;;18.23;10.97;;;;;;;;;;5115507;27;20445;-73
2023/01/19 08:55:58;;;;;;;18.07;12.53;;;;;;;;;;5115895;28;20977;-74
2023/01/19 08:58:25;;;;;;;22.73;11.87;;;;;;;;;;5115566;28;20985;-73
2023/01/19 09:00:53;;;;;;;18.73;11.43;;;;;;;;;;5115362;28;20445;-73
2023/01/19 09:03:21;;;;;;;16.37;12.20;;;;;;;;;;5115374;28;20465;-73
2023/01/19 09:05:49;;;;;;;18.37;12.60;;;;;;;;;;5115230;28;20462;-73
2023/01/19 09:08:16;;;;;;;16.90;12.50;;;;;;;;;;5115768;28;20860;-73
2023/01/19 09:10:47;;;;;;;22.60;12.90;;;;;;;;;;5115654;28;20462;-72
2023/01/19 09:13:16;;;;;;;15.30;11.37;;;;;;;;;;5115138;28;20519;-73
2023/01/19 09:15:43;;;;;;;21.83;14.50;;;;;;;;;;5105442;28;20836;-72
2023/01/19 09:18:12;;;;;;;18.57;12.00;;;;;;;;;;5095476;28;20454;-72
2023/01/19 09:20:41;;;;;;;14.50;9.67;;;;;;;;;;5095103;28;20462;-72
2023/01/19 09:23:09;;;;;;;15.97;11.50;;;;;;;;;;5096018;28;20545;-72
2023/01/19 09:25:36;;;;;;;17.97;12.00;;;;;;;;;;5095513;28;20504;-72
2023/01/19 09:28:04;;;;;;;18.83;13.33;;;;;;;;;;5095359;28;20512;-72
2023/01/19 09:30:34;;;;;;;16.80;11.60;;;;;;;;;;5094640;28;20526;-72
2023/01/19 09:33:03;;;;;;;18.63;11.63;;;;;;;;;;5093891;28;20439;-73
2023/01/19 09:35:31;;;;;;;25.43;14.13;;;;;;;;;;5093583;28;20455;-72
2023/01/19 09:37:58;;;;;;;20.43;11.70;;;;;;;;;;5093360;28;20450;-73
2023/01/19 09:40:25;;;;;;;21.67;11.13;;;;;;;;;;5093508;28;20447;-73
2023/01/19 09:42:55;;;;;;;20.67;12.73;;;;;;;;;;5093488;28;20835;-72
2023/01/19 09:45:26;;;;;;;19.30;12.70;;;;;;;;;;5093543;28;20447;-72
2023/01/19 09:47:55;;;;;;;16.80;11.27;;;;;;;;;;5095156;28;20823;-72
2023/01/19 09:50:26;;;;;;;19.73;12.33;;;;;;;;;;5095355;28;20447;-72
2023/01/19 09:52:56;;;;;;;21.10;12.30;;;;;;;;;;5095187;28;20458;-72
2023/01/19 09:55:25;;;;;;;19.70;13.13;;;;;;;;;;5095135;28;20935;-72
2023/01/19 09:57:53;;;;;;;16.80;11.20;;;;;;;;;;5094803;28;20835;-72
2023/01/19 10:00:21;;;;;;;19.70;12.23;;;;;;;;;;5095153;28;20455;-73
2023/01/19 10:02:51;;;;;;;16.53;11.73;;;;;;;;;;5094852;28;20467;-72
2023/01/19 10:05:25;;;;;;;19.20;11.10;;;;;;;;;;5094860;28;20459;-72
2023/01/19 10:07:57;;;;;;;18.77;12.07;;;;;;;;;;5094734;28;20449;-73
2023/01/19 10:10:26;;;;;;;14.37;9.30;;;;;;;;;;5094961;28;20450;-72
2023/01/19 10:12:58;;;;;;;11.77;8.87;;;;;;;;;;5094869;28;20462;-72
2023/01/19 10:15:31;;;;;;;17.73;11.67;;;;;;;;;;5094694;28;20451;-72
2023/01/19 10:18:04;;;;;;;13.50;8.50;;;;;;;;;;5094662;28;20462;-72
2023/01/19 10:20:35;;;;;;;14.80;9.53;;;;;;;;;;5094742;28;20455;-73
2023/01/19 10:23:05;;;;;;;12.27;9.27;;;;;;;;;;5094759;28;20454;-72
2023/01/19 10:25:32;;;;;;;13.10;8.60;;;;;;;;;;5094518;28;20459;-72
2023/01/19 10:28:01;;;;;;;14.93;10.07;;;;;;;;;;5094251;28;20447;-73
2023/01/19 10:30:29;;;;;;;17.07;10.23;;;;;;;;;;5094418;28;20454;-72
2023/01/19 10:32:56;;;;;;;12.27;8.97;;;;;;;;;;5094443;28;20454;-73
2023/01/19 10:35:24;;;;;;;15.03;9.93;;;;;;;;;;5094111;28;20995;-73
2023/01/19 10:37:54;;;;;;;14.40;9.93;;;;;;;;;;5094063;28;20952;-73
2023/01/19 10:40:31;;;;;;;13.53;8.87;;;;;;;;;;5094156;28;21016;-72
2023/01/19 10:42:58;;;;;;;13.57;9.57;;;;;;;;;;5094403;28;20473;-72
2023/01/19 10:45:28;;;;;;;17.70;10.00;;;;;;;;;;5093979;28;20449;-72
2023/01/19 10:47:55;;;;;;;13.70;8.50;;;;;;;;;;5094052;28;20458;-72
2023/01/19 10:50:24;;;;;;;14.90;9.67;;;;;;;;;;5094383;28;20495;-72
2023/01/19 10:52:54;;;;;;;12.73;7.57;;;;;;;;;;5094010;28;20466;-73
2023/01/19 10:55:25;;;;;;;15.23;9.73;;;;;;;;;;5093954;28;20457;-72
2023/01/19 10:57:52;;;;;;;15.90;10.80;;;;;;;;;;5093817;28;20451;-73
2023/01/19 11:00:29;;;;;;;21.60;10.90;;;;;;;;;;5093953;28;20449;-72
2023/01/19 11:02:57;;;;;;;21.63;12.37;;;;;;;;;;5093787;28;20464;-73
2023/01/19 11:05:25;;;;;;;14.40;9.73;;;;;;;;;;5093588;28;20482;-72
2023/01/19 11:07:54;;;;;;;13.50;9.57;;;;;;;;;;5093590;28;20451;-72
2023/01/19 11:10:22;;;;;;;13.00;8.33;;;;;;;;;;5093475;28;20489;-72
2023/01/19 11:12:56;;;;;;;13.17;8.43;;;;;;;;;;5093698;28;20463;-73
2023/01/19 11:15:24;;;;;;;14.67;8.70;;;;;;;;;;5093844;28;20457;-72
2023/01/19 11:17:52;;;;;;;13.30;8.50;;;;;;;;;;5093733;28;20454;-72
2023/01/19 11:20:20;;;;;;;10.70;8.40;;;;;;;;;;5093678;28;20457;-72
2023/01/19 11:22:47;;;;;;;14.67;8.80;;;;;;;;;;5093472;28;20458;-73
2023/01/19 11:25:25;;;;;;;15.33;8.87;;;;;;;;;;5093549;28;20454;-72
2023/01/19 11:27:53;;;;;;;14.53;8.93;;;;;;;;;;5093692;28;20435;-73
2023/01/19 11:30:21;;;;;;;9.77;7.83;;;;;;;;;;5093388;28;20489;-73
2023/01/19 11:32:49;;;;;;;15.23;10.07;;;;;;;;;;5093101;28;20473;-73
2023/01/19 11:35:36;;;;;;;18.00;10.97;;;;;;;;;;5093501;28;20965;-73
2023/01/19 11:38:17;;;;;;;17.00;9.50;;;;;;;;;;5089913;28;20632;-74
2023/01/19 11:40:53;;;;;;;16.13;9.13;;;;;;;;;;5093373;28;20450;-73
2023/01/19 11:43:20;;;;;;;12.07;8.00;;;;;;;;;;5093304;28;20533;-74
2023/01/19 11:45:48;;;;;;;16.23;10.57;;;;;;;;;;5092866;28;20442;-74
2023/01/19 11:48:17;;;;;;;14.53;9.80;;;;;;;;;;5093075;28;20797;-74
2023/01/19 11:50:45;;;;;;;15.27;10.53;;;;;;;;;;5092842;28;20489;-74
2023/01/19 11:53:15;;;;;;;15.53;10.17;;;;;;;;;;5093333;28;20442;-74
2023/01/19 11:55:47;;;;;;;11.27;7.53;;;;;;;;;;5092823;28;20958;-74
2023/01/19 11:58:16;;;;;;;16.70;8.93;;;;;;;;;;5093058;28;20488;-74
2023/01/19 12:00:45;;;;;;;18.43;7.60;;;;;;;;;;5092809;28;20446;-74
2023/01/19 12:03:15;;;;;;;14.73;8.93;;;;;;;;;;5092840;28;20458;-74
2023/01/19 12:05:45;;;;;;;16.83;10.40;;;;;;;;;;5092610;28;20450;-74
2023/01/19 12:08:15;;;;;;;17.73;10.93;;;;;;;;;;5092775;28;20478;-74
2023/01/19 12:10:44;;;;;;;11.20;8.13;;;;;;;;;;5092746;28;20482;-74
2023/01/19 12:13:18;;;;;;;11.03;6.73;;;;;;;;;;5092901;28;20955;-74
2023/01/19 12:15:46;;;;;;;10.37;7.40;;;;;;;;;;5092858;28;20967;-74
2023/01/19 12:18:16;;;;;;;16.60;7.80;;;;;;;;;;5092778;28;20467;-74
2023/01/19 12:20:45;;;;;;;9.50;8.13;;;;;;;;;;5098724;27;20477;-74
2023/01/19 12:23:17;;;;;;;14.20;9.23;;;;;;;;;;5116034;28;20961;-74
2023/01/19 12:25:51;;;;;;;14.97;7.73;;;;;;;;;;5115523;27;20456;-74
2023/01/19 12:28:21;;;;;;;9.13;7.50;;;;;;;;;;5115807;28;20465;-74
2023/01/19 12:30:50;;;;;;;12.70;9.03;;;;;;;;;;5114418;28;20488;-74
2023/01/19 12:33:22;;;;;;;12.07;7.40;;;;;;;;;;5095139;28;20474;-74
2023/01/19 12:35:55;;;;;;;13.17;6.90;;;;;;;;;;5095290;28;20486;-74
2023/01/19 12:38:37;;;;;;;11.40;8.13;;;;;;;;;;5095420;28;20481;-74
2023/01/19 12:41:31;;;;;;;14.73;8.67;;;;;;;;;;5095254;28;20446;-74
2023/01/19 12:44:29;;;;;;;12.53;7.60;;;;;;;;;;5058928;28;20465;-74
2023/01/19 12:47:02;;;;;;;14.40;7.47;;;;;;;;;;5032575;28;20459;-74
2023/01/19 12:49:32;;;;;;;9.90;6.83;;;;;;;;;;5083538;28;21038;-74
2023/01/19 12:52:13;;;;;;;9.77;5.37;;;;;;;;;;5094991;28;20455;-74
2023/01/19 12:54:42;;;;;;;8.03;5.07;;;;;;;;;;5094873;28;20479;-74
2023/01/19 12:57:15;;;;;;;14.87;6.47;;;;;;;;;;5095046;28;20453;-74
2023/01/19 12:59:42;;;;;;;11.00;7.00;;;;;;;;;;5094902;28;20466;-74
2023/01/19 13:02:27;;;;;;;11.93;7.40;;;;;;;;;;5094738;28;20480;-75
2023/01/19 13:05:09;;;;;;;6.53;4.63;;;;;;;;;;5094785;28;20438;-74
2023/01/19 13:07:51;;;;;;;11.33;5.70;;;;;;;;;;5092644;28;20462;-74
2023/01/19 13:10:37;;;;;;;8.40;5.00;;;;;;;;;;5094404;28;20482;-74
2023/01/19 13:13:17;;;;;;;10.40;5.83;;;;;;;;;;5094511;28;20466;-74
2023/01/19 13:15:44;;;;;;;10.67;6.07;;;;;;;;;;5094539;28;20460;-74
2023/01/19 13:18:17;;;;;;;12.43;6.33;;;;;;;;;;5094710;28;20862;-74
2023/01/19 13:20:45;;;;;;;8.47;5.80;;;;;;;;;;5094425;28;20524;-74
2023/01/19 13:23:16;;;;;;;14.07;6.30;;;;;;;;;;5094524;28;20455;-74
2023/01/19 13:25:45;;;;;;;9.90;7.20;;;;;;;;;;5094332;28;20819;-74
2023/01/19 13:28:14;;;;;;;11.33;5.73;;;;;;;;;;5094723;28;20467;-74
2023/01/19 13:30:51;;;;;;;8.10;5.63;;;;;;;;;;5094726;28;20486;-74
2023/01/19 13:33:21;;;;;;;8.60;5.77;;;;;;;;;;5094958;28;20461;-74
2023/01/19 13:35:52;;;;;;;9.13;5.77;;;;;;;;;;5095460;28;20612;-74
2023/01/19 13:38:20;;;;;;;8.67;4.77;;;;;;;;;;5095732;28;20826;-74
2023/01/19 13:40:47;;;;;;;9.60;5.23;;;;;;;;;;5095377;28;20443;-74
2023/01/19 13:43:17;;;;;;;6.07;4.47;;;;;;;;;;5095580;28;20537;-74
2023/01/19 13:45:48;;;;;;;8.80;4.03;;;;;;;;;;5095155;28;20450;-74
2023/01/19 13:48:16;;;;;;;10.30;6.40;;;;;;;;;;5095342;28;20466;-74
2023/01/19 13:50:44;;;;;;;6.60;4.63;;;;;;;;;;5095330;28;21033;-74
2023/01/19 13:53:19;;;;;;;11.00;6.40;;;;;;;;;;5095360;28;20462;-74
2023/01/19 13:55:47;;;;;;;11.80;6.57;;;;;;;;;;5095038;28;20450;-74
2023/01/19 13:58:21;;;;;;;6.87;5.50;;;;;;;;;;5095374;28;20466;-74
2023/01/19 14:00:49;;;;;;;13.37;6.03;;;;;;;;;;5095213;28;20482;-74
2023/01/19 14:03:20;;;;;;;10.17;6.93;;;;;;;;;;5095077;28;20557;-74
2023/01/19 14:05:50;;;;;;;11.50;6.07;;;;;;;;;;5094911;28;20461;-74
2023/01/19 14:08:18;;;;;;;13.40;6.40;;;;;;;;;;5095066;28;20470;-74
2023/01/19 14:10:46;;;;;;;11.00;6.20;;;;;;;;;;5094759;28;21056;-74
2023/01/19 14:13:15;;;;;;;9.63;6.20;;;;;;;;;;5095069;28;20459;-74
2023/01/19 14:15:42;;;;;;;12.97;7.67;;;;;;;;;;5094671;28;20507;-74
2023/01/19 14:18:21;;;;;;;8.50;6.10;;;;;;;;;;5094705;28;20447;-74
2023/01/19 14:20:56;;;;;;;13.83;5.93;;;;;;;;;;5094769;28;20461;-74
2023/01/19 14:23:40;;;;;;;9.60;6.27;;;;;;;;;;5094906;28;20450;-73
2023/01/19 14:26:14;;;;;;;8.40;5.00;;;;;;;;;;5094665;28;20454;-73
2023/01/19 14:28:43;;;;;;;11.57;8.37;;;;;;;;;;5094563;28;20466;-72
2023/01/19 14:31:20;;;;;;;9.27;6.30;;;;;;;;;;5093849;28;20486;-72
2023/01/19 14:33:49;;;;;;;14.47;6.23;;;;;;;;;;5094274;28;20796;-73
2023/01/19 14:36:24;;;;;;;8.83;6.00;;;;;;;;;;5094623;28;20796;-72
2023/01/19 14:38:52;;;;;;;7.47;5.50;;;;;;;;;;5094229;28;20477;-72